Time;durP1;ratioP1;P1;durP2;ratioP2;P2;SDS_P1;SDS_P2;PMS_P1;PMS_P2;Temp;Humidity;BMP_temperature;BMP_pressure;BME280_temperature;BME280_humidity;BME280_pressure;Samples;Min_cycle;Max_cycle;Signal;HPM_P1;HPM_P2
2023/01/30 05:28:30;;;;;;;;;4.75;3.75;;;;;17.56;43.38;102223.50;5074422;27;45550;-77
2023/01/30 05:31:10;;;;;;;;;3.00;2.75;;;;;18.00;43.88;102232.50;5069751;27;45384;-78
2023/01/30 05:33:37;;;;;;;;;5.50;5.50;;;;;18.63;44.10;102233.03;5068384;28;45379;-77
2023/01/30 05:36:02;;;;;;;;;3.50;3.50;;;;;19.29;44.02;102229.66;5063946;28;45623;-79
2023/01/30 05:38:28;;;;;;;;;4.75;4.75;;;;;19.96;44.41;102229.63;5063864;28;46355;-79
2023/01/30 05:41:04;;;;;;;;;5.75;3.75;;;;;20.60;44.04;102227.81;5065795;27;45565;-77
2023/01/30 05:43:30;;;;;;;;;3.25;3.25;;;;;21.20;43.87;102214.41;5069881;27;46167;-77
2023/01/30 05:45:57;;;;;;;;;3.25;2.75;;;;;21.72;42.97;102219.47;5071617;27;45387;-75
2023/01/30 05:48:24;;;;;;;;;4.00;4.00;;;;;22.14;43.26;102205.34;5069323;28;48223;-77
2023/01/30 05:50:50;;;;;;;;;3.00;3.00;;;;;22.61;42.67;102212.47;5066887;28;45433;-78
2023/01/30 05:53:17;;;;;;;;;2.00;2.00;;;;;22.94;42.22;102207.06;5070428;28;45541;-76
2023/01/30 05:55:42;;;;;;;;;3.00;3.00;;;;;23.29;42.15;102201.34;5071270;27;45400;-79
2023/01/30 05:58:08;;;;;;;;;2.00;2.00;;;;;23.60;42.02;102200.59;5070112;27;46110;-80
2023/01/30 06:00:33;;;;;;;;;3.00;3.00;;;;;23.86;41.66;102194.72;5068858;28;45487;-77
2023/01/30 06:02:59;;;;;;;;;2.00;2.00;;;;;24.06;41.13;102189.38;5070720;28;45439;-77
2023/01/30 06:05:24;;;;;;;;;4.00;4.00;;;;;24.28;41.14;102198.34;5070308;28;45498;-78
2023/01/30 06:07:49;;;;;;;;;4.67;4.67;;;;;24.36;40.90;102192.22;5069033;28;53679;-78
2023/01/30 06:10:15;;;;;;;;;4.33;4.33;;;;;24.59;40.77;102212.69;5071398;28;45892;-79
2023/01/30 06:12:41;;;;;;;;;3.00;3.00;;;;;24.66;40.14;102201.25;5070852;27;45598;-79
2023/01/30 06:15:08;;;;;;;;;3.00;3.00;;;;;24.87;40.49;102206.59;5058087;27;45601;-76
2023/01/30 06:17:33;;;;;;;;;3.00;3.00;;;;;24.99;40.33;102212.75;5060101;27;45469;-74
2023/01/30 06:19:58;;;;;;;;;5.00;4.33;;;;;25.05;40.21;102211.34;5064110;28;45427;-75
2023/01/30 06:22:23;;;;;;;;;3.00;3.00;;;;;25.16;39.60;102218.44;5072502;27;47214;-73
2023/01/30 06:24:49;;;;;;;;;3.00;3.00;;;;;25.21;39.93;102222.47;5065998;27;49854;-74
2023/01/30 06:27:14;;;;;;;;;2.67;2.67;;;;;25.22;39.55;102212.47;5080102;27;56433;-76
2023/01/30 06:29:39;;;;;;;;;4.00;4.00;;;;;25.31;39.43;102219.75;5064197;27;45351;-76
2023/01/30 06:32:05;;;;;;;;;3.33;3.33;;;;;25.37;39.34;102215.56;5079803;27;46565;-76
2023/01/30 06:34:30;;;;;;;;;2.00;2.00;;;;;25.41;39.39;102200.69;5080461;27;45779;-75
2023/01/30 06:36:55;;;;;;;;;2.67;2.67;;;;;25.47;39.28;102189.22;5076210;27;46289;-75
2023/01/30 06:39:21;;;;;;;;;3.67;3.00;;;;;25.55;39.14;102183.13;5071153;27;45436;-75
2023/01/30 06:41:46;;;;;;;;;3.33;3.33;;;;;25.70;39.32;102193.50;5064888;27;45808;-75
2023/01/30 06:44:12;;;;;;;;;4.00;4.00;;;;;25.75;39.08;102192.03;5070294;27;45382;-76
2023/01/30 06:46:37;;;;;;;;;2.67;2.67;;;;;25.82;39.03;102184.16;5062562;27;46179;-75
2023/01/30 06:49:02;;;;;;;;;3.00;3.00;;;;;25.89;38.71;102195.28;5061595;27;47334;-75
2023/01/30 06:51:27;;;;;;;;;4.00;2.67;;;;;25.99;38.32;102198.81;5072708;28;45511;-75
2023/01/30 06:53:53;;;;;;;;;2.33;2.33;;;;;26.05;38.59;102203.69;5076111;28;45364;-75
2023/01/30 06:56:18;;;;;;;;;3.00;3.00;;;;;26.11;37.98;102199.47;5062968;28;54462;-76
2023/01/30 06:58:44;;;;;;;;;2.33;2.33;;;;;26.11;38.19;102202.19;5066342;28;45440;-76
2023/01/30 07:01:09;;;;;;;;;3.33;3.33;;;;;26.11;37.97;102204.09;5067554;27;46391;-75
2023/01/30 07:03:35;;;;;;;;;3.00;3.00;;;;;26.10;37.64;102208.66;5066291;27;45424;-75
2023/01/30 07:06:00;;;;;;;;;6.67;4.00;;;;;26.07;37.99;102210.81;5069820;27;47064;-76
2023/01/30 07:08:25;;;;;;;;;3.00;3.00;;;;;26.05;37.95;102219.13;5061372;27;45484;-77
2023/01/30 07:10:51;;;;;;;;;4.67;3.00;;;;;26.03;37.73;102222.00;5066703;27;45611;-75
2023/01/30 07:13:16;;;;;;;;;6.00;5.00;;;;;25.99;37.68;102220.56;5067890;27;45583;-75
2023/01/30 07:15:43;;;;;;;;;2.67;2.00;;;;;25.94;37.37;102222.06;5065377;27;45543;-75
2023/01/30 07:18:09;;;;;;;;;4.67;4.33;;;;;25.94;37.42;102224.78;5051932;28;45566;-75
2023/01/30 07:20:34;;;;;;;;;3.00;3.00;;;;;25.96;37.52;102233.63;5076361;28;45383;-75
2023/01/30 07:23:00;;;;;;;;;3.33;3.33;;;;;26.01;37.37;102245.78;5074114;28;45579;-75
2023/01/30 07:25:26;;;;;;;;;4.00;3.33;;;;;26.04;37.65;102244.63;5076193;28;46301;-75
2023/01/30 07:27:54;;;;;;;;;3.67;3.67;;;;;26.09;36.94;102246.88;5054784;28;45467;-75
2023/01/30 07:30:20;;;;;;;;;4.00;4.00;;;;;26.10;37.08;102252.19;5068592;28;45396;-75
2023/01/30 07:32:54;;;;;;;;;4.00;4.00;;;;;26.14;37.41;102264.50;5074614;28;45417;-75
2023/01/30 07:35:21;;;;;;;;;3.00;3.00;;;;;26.18;36.75;102271.34;5058693;27;45723;-75
2023/01/30 07:37:47;;;;;;;;;3.00;3.00;;;;;26.19;36.87;102277.63;5060758;27;45981;-75
2023/01/30 07:40:12;;;;;;;;;4.00;4.00;;;;;26.26;36.50;102283.38;5065387;27;45654;-75
2023/01/30 07:42:38;;;;;;;;;4.00;4.00;;;;;26.29;36.52;102283.06;5070309;27;45510;-75
2023/01/30 07:45:03;;;;;;;;;4.33;3.33;;;;;26.31;36.91;102291.94;5069956;27;52127;-74
2023/01/30 07:47:29;;;;;;;;;4.00;4.00;;;;;26.34;36.85;102282.63;5065951;28;45691;-74
2023/01/30 07:49:55;;;;;;;;;4.00;4.00;;;;;26.33;36.28;102279.06;5069282;28;45517;-76
2023/01/30 07:52:20;;;;;;;;;6.00;6.00;;;;;26.34;36.49;102285.34;5069250;27;45441;-73
2023/01/30 07:54:45;;;;;;;;;6.00;3.67;;;;;26.30;36.34;102279.34;5073349;28;46620;-75
2023/01/30 07:57:11;;;;;;;;;4.00;4.00;;;;;26.25;36.00;102285.25;5074802;27;45552;-73
2023/01/30 07:59:36;;;;;;;;;6.00;3.33;;;;;26.23;36.33;102298.09;5072466;27;45348;-73
2023/01/30 08:02:01;;;;;;;;;6.67;6.00;;;;;26.22;36.59;102293.66;5075978;27;50921;-73
2023/01/30 08:04:26;;;;;;;;;3.00;3.00;;;;;26.21;36.74;102291.09;5060825;28;46409;-73
2023/01/30 08:06:52;;;;;;;;;4.00;3.67;;;;;26.24;36.59;102294.38;5040998;28;48850;-73
2023/01/30 08:09:17;;;;;;;;;5.00;2.33;;;;;26.17;36.60;102274.22;5060547;28;45698;-74
2023/01/30 08:11:42;;;;;;;;;5.00;5.00;;;;;26.32;36.14;102290.94;5060017;28;45514;-74
2023/01/30 08:14:08;;;;;;;;;4.67;4.00;;;;;26.39;36.21;102294.78;5065648;28;55732;-73
2023/01/30 08:16:33;;;;;;;;;3.67;3.67;;;;;26.44;36.71;102294.31;5073581;27;45423;-74
2023/01/30 08:18:58;;;;;;;;;6.00;4.00;;;;;26.49;36.33;102292.00;5068986;28;45378;-76
2023/01/30 08:21:24;;;;;;;;;7.33;4.00;;;;;26.54;36.03;102295.13;5071879;28;45333;-72
2023/01/30 08:23:49;;;;;;;;;4.00;4.00;;;;;26.58;36.08;102285.63;5071620;28;45455;-74
2023/01/30 08:26:15;;;;;;;;;3.00;3.00;;;;;26.60;36.12;102290.94;5065272;27;45689;-74
2023/01/30 08:28:41;;;;;;;;;4.67;3.33;;;;;26.63;36.05;102289.78;5048948;27;45801;-73
2023/01/30 08:31:13;;;;;;;;;3.67;3.67;;;;;26.63;36.43;102296.09;5058328;28;45642;-74
2023/01/30 08:33:39;;;;;;;;;3.33;3.00;;;;;26.65;35.99;102299.50;5067705;28;45427;-74
2023/01/30 08:36:04;;;;;;;;;5.00;4.00;;;;;26.65;36.60;102299.50;5062536;27;46428;-79
2023/01/30 08:38:30;;;;;;;;;3.00;3.00;;;;;26.66;36.53;102312.13;5076678;27;47093;-76
2023/01/30 08:40:56;;;;;;;;;4.00;3.67;;;;;26.64;35.92;102291.50;5055679;27;49914;-74
2023/01/30 08:43:22;;;;;;;;;5.33;5.33;;;;;26.66;36.36;102303.97;5070338;28;47304;-77
2023/01/30 08:45:47;;;;;;;;;5.33;4.33;;;;;26.66;35.88;102294.94;5068803;27;45527;-76
2023/01/30 08:48:13;;;;;;;;;6.33;4.00;;;;;26.65;36.60;102293.22;5064341;28;45397;-75
2023/01/30 08:50:38;;;;;;;;;3.00;2.00;;;;;26.66;35.85;102293.06;5056029;28;45346;-73
2023/01/30 08:53:08;;;;;;;;;3.33;3.33;;;;;26.69;35.92;102297.34;5061253;27;46784;-73
2023/01/30 08:55:34;;;;;;;;;3.67;3.00;;;;;26.70;36.43;102308.06;5070065;28;45948;-73
2023/01/30 08:57:59;;;;;;;;;6.00;4.00;;;;;26.73;36.49;102309.63;5072464;27;45790;-76
2023/01/30 09:00:26;;;;;;;;;5.33;4.00;;;;;26.73;35.86;102301.47;5072502;28;45458;-75
2023/01/30 09:02:55;;;;;;;;;6.00;6.00;;;;;26.74;36.41;102310.50;5075620;27;46036;-75
2023/01/30 09:05:21;;;;;;;;;6.67;5.00;;;;;26.74;35.98;102305.06;5065931;28;45407;-74
2023/01/30 09:07:46;;;;;;;;;3.67;3.33;;;;;26.76;35.84;102320.22;5070842;28;45936;-75
2023/01/30 09:10:11;;;;;;;;;4.00;4.00;;;;;26.80;35.91;102320.78;5069151;28;45372;-73
2023/01/30 09:12:37;;;;;;;;;4.00;4.00;;;;;26.80;36.23;102318.03;5057678;27;46191;-76
2023/01/30 09:15:03;;;;;;;;;4.00;4.00;;;;;26.80;36.34;102324.38;5063206;28;46141;-75
2023/01/30 09:17:28;;;;;;;;;4.00;4.00;;;;;26.81;35.76;102319.78;5067724;28;45492;-76
2023/01/30 09:19:53;;;;;;;;;5.67;4.00;;;;;26.82;35.98;102325.06;5073869;28;50456;-75
2023/01/30 09:22:19;;;;;;;;;3.67;3.67;;;;;26.83;35.71;102320.47;5070760;28;45515;-75
2023/01/30 09:24:44;;;;;;;;;3.00;3.00;;;;;26.79;35.70;102303.59;5068466;28;45467;-75
2023/01/30 09:27:09;;;;;;;;;4.33;3.00;;;;;26.81;36.26;102315.19;5064116;28;45388;-76
2023/01/30 09:29:36;;;;;;;;;4.67;4.67;;;;;26.80;35.74;102320.78;5064958;28;45558;-75
2023/01/30 09:32:01;;;;;;;;;5.00;5.00;;;;;26.76;35.94;102331.13;5059919;28;49501;-74
2023/01/30 09:34:27;;;;;;;;;6.00;6.00;;;;;26.68;35.70;102323.72;5069746;27;45388;-73
2023/01/30 09:37:00;;;;;;;;;5.33;5.33;;;;;26.55;35.52;102313.19;5065565;28;45508;-74
2023/01/30 09:39:26;;;;;;;;;6.00;5.00;;;;;26.47;35.64;102314.94;5059407;28;45475;-72
2023/01/30 09:42:04;;;;;;;;;5.00;5.00;;;;;26.41;35.27;102324.56;5064173;27;46053;-73
2023/01/30 09:45:03;;;;;;;;;6.67;6.00;;;;;26.39;35.17;102338.31;5068261;27;45328;-71
2023/01/30 09:47:43;;;;;;;;;5.00;5.00;;;;;26.41;35.49;102346.34;5071650;27;45380;-74
2023/01/30 09:50:28;;;;;;;;;5.00;5.00;;;;;26.45;35.70;102336.88;5068125;28;45467;-71
2023/01/30 09:53:21;;;;;;;;;5.00;5.00;;;;;26.49;35.16;102338.31;5071795;28;46054;-72
2023/01/30 09:55:47;;;;;;;;;5.00;4.33;;;;;26.51;35.19;102321.78;5066546;28;45434;-72
2023/01/30 09:58:18;;;;;;;;;2.67;2.67;;;;;26.54;35.13;102319.66;5061115;28;45494;-73
2023/01/30 10:00:45;;;;;;;;;4.67;4.00;;;;;26.62;35.12;102326.19;5071421;27;45745;-75
2023/01/30 10:03:15;;;;;;;;;6.00;4.67;;;;;26.62;35.74;102318.88;5064203;27;45980;-75
2023/01/30 10:05:49;;;;;;;;;5.00;5.00;;;;;26.68;35.46;102326.44;5057353;28;46977;-75
2023/01/30 10:08:39;;;;;;;;;4.00;4.00;;;;;26.70;35.65;102332.56;5057700;27;45405;-72
2023/01/30 10:11:24;;;;;;;;;3.67;3.67;;;;;26.71;35.17;102333.44;5064250;27;45570;-74
2023/01/30 10:14:08;;;;;;;;;6.00;4.67;;;;;26.70;35.73;102335.31;5058539;28;45441;-73
2023/01/30 10:16:45;;;;;;;;;6.00;4.67;;;;;26.70;35.03;102331.75;5066725;28;45535;-73
2023/01/30 10:19:23;;;;;;;;;5.00;4.67;;;;;26.69;35.33;102327.31;5056267;28;45483;-74
2023/01/30 10:22:01;;;;;;;;;4.00;4.00;;;;;26.66;35.62;102331.19;5070496;27;45537;-76
2023/01/30 10:24:38;;;;;;;;;4.00;4.00;;;;;26.63;35.54;102338.78;5046205;28;48230;-73
2023/01/30 10:27:10;;;;;;;;;5.00;4.67;;;;;26.62;35.62;102343.41;5070541;28;45629;-73
2023/01/30 10:29:38;;;;;;;;;3.67;3.33;;;;;26.62;35.46;102343.41;5061761;28;45931;-73
2023/01/30 10:32:14;;;;;;;;;5.00;4.00;;;;;26.62;35.80;102345.25;5061396;28;45479;-73
2023/01/30 10:34:45;;;;;;;;;7.67;5.00;;;;;26.69;35.69;102343.66;5073804;27;45835;-72
2023/01/30 10:37:45;;;;;;;;;4.00;4.00;;;;;26.73;35.76;102341.47;5056613;27;45484;-72
2023/01/30 10:40:45;;;;;;;;;5.00;5.00;;;;;26.76;35.17;102352.91;5044974;28;47062;-77
2023/01/30 10:43:26;;;;;;;;;5.00;5.00;;;;;26.80;35.30;102356.19;5051510;28;45529;-75
2023/01/30 10:46:29;;;;;;;;;4.00;4.00;;;;;26.84;35.08;102357.59;5053328;27;46160;-74
2023/01/30 10:49:05;;;;;;;;;4.33;4.33;;;;;26.86;35.35;102352.88;5047738;28;46306;-74
2023/01/30 10:52:09;;;;;;;;;7.00;7.00;;;;;26.84;35.57;102343.97;5057723;28;46132;-75
2023/01/30 10:54:59;;;;;;;;;4.00;4.00;;;;;26.82;35.47;102335.13;5051771;27;45580;-75
2023/01/30 10:57:52;;;;;;;;;3.00;3.00;;;;;26.78;35.45;102325.53;5055150;27;46310;-74
2023/01/30 11:00:51;;;;;;;;;3.67;3.67;;;;;26.69;35.18;102303.63;5072458;27;45745;-74
2023/01/30 11:03:55;;;;;;;;;4.33;4.00;;;;;26.66;35.30;102308.53;5060363;27;45564;-74
2023/01/30 11:06:24;;;;;;;;;2.00;2.00;;;;;26.60;35.41;102314.59;5013025;28;45426;-75
2023/01/30 11:08:51;;;;;;;;;4.00;3.67;;;;;26.57;34.91;102323.94;5010372;28;45519;-74
2023/01/30 11:11:26;;;;;;;;;4.00;4.00;;;;;26.50;35.09;102315.50;5013145;28;45481;-74
2023/01/30 11:14:06;;;;;;;;;6.00;4.33;;;;;26.45;35.46;102312.38;5011347;28;45556;-74
2023/01/30 11:16:43;;;;;;;;;3.33;3.33;;;;;26.39;35.11;102313.81;5007124;28;45591;-74
2023/01/30 11:19:09;;;;;;;;;6.00;4.00;;;;;26.35;34.89;102315.13;5008793;28;46254;-76
2023/01/30 11:21:35;;;;;;;;;9.00;7.67;;;;;26.31;35.37;102320.03;5006774;28;45570;-76
2023/01/30 11:24:12;;;;;;;;;8.00;8.00;;;;;26.24;34.94;102326.19;5012709;28;45699;-75
2023/01/30 11:26:37;;;;;;;;;8.33;7.00;;;;;26.10;34.71;102332.94;5011813;28;45357;-75
2023/01/30 11:29:20;;;;;;;;;8.00;8.00;;;;;25.94;34.87;102320.81;5013104;28;46376;-75
2023/01/30 11:31:49;;;;;;;;;6.00;6.00;;;;;25.80;34.65;102314.00;4998027;28;45470;-75
2023/01/30 11:34:16;;;;;;;;;7.33;7.33;;;;;25.68;34.35;102302.41;5012651;28;45362;-75
2023/01/30 11:36:42;;;;;;;;;7.00;7.00;;;;;25.58;35.11;102298.84;5027478;28;45574;-75
2023/01/30 11:39:17;;;;;;;;;8.33;6.67;;;;;25.48;34.49;102310.56;5068785;28;46357;-75
2023/01/30 11:42:08;;;;;;;;;9.33;8.00;;;;;25.37;34.43;102306.13;5072112;28;45526;-75
2023/01/30 11:44:36;;;;;;;;;5.00;5.00;;;;;25.31;34.61;102303.13;5072931;27;45554;-75
2023/01/30 11:47:16;;;;;;;;;5.00;5.00;;;;;25.23;34.71;102301.13;5062544;28;45653;-75
2023/01/30 11:49:45;;;;;;;;;5.33;5.00;;;;;25.17;34.72;102299.81;5072766;28;45510;-73
2023/01/30 11:52:12;;;;;;;;;6.00;5.00;;;;;25.18;34.66;102308.84;5068236;27;45463;-75
2023/01/30 11:54:42;;;;;;;;;5.33;5.33;;;;;25.18;34.35;102295.25;5065933;27;45604;-74
2023/01/30 11:57:16;;;;;;;;;9.33;6.67;;;;;25.21;34.62;102284.09;5064198;27;45473;-75
2023/01/30 11:59:41;;;;;;;;;6.00;6.00;;;;;25.25;34.37;102277.38;5071166;27;46158;-74
2023/01/30 12:02:24;;;;;;;;;6.33;6.33;;;;;25.28;34.68;102290.69;5065952;27;45375;-74
2023/01/30 12:04:54;;;;;;;;;6.67;5.00;;;;;25.29;34.47;102284.25;5049444;27;45546;-74
2023/01/30 12:07:24;;;;;;;;;8.00;7.67;;;;;25.37;34.56;102288.94;5070854;27;45395;-74
2023/01/30 12:09:51;;;;;;;;;6.00;6.00;;;;;25.41;34.84;102273.25;5069703;28;45613;-73
2023/01/30 12:12:28;;;;;;;;;7.00;7.00;;;;;25.48;34.67;102277.06;5070574;27;45490;-74
2023/01/30 12:15:03;;;;;;;;;6.00;6.00;;;;;25.52;34.29;102262.19;5072727;27;45324;-74
2023/01/30 12:17:54;;;;;;;;;6.33;6.33;;;;;25.54;34.76;102252.03;5070971;27;45459;-74
2023/01/30 12:20:31;;;;;;;;;7.00;7.00;;;;;25.61;34.52;102260.50;5066856;27;45392;-74
2023/01/30 12:23:16;;;;;;;;;7.00;5.33;;;;;25.65;34.37;102257.34;5068686;27;45472;-73
2023/01/30 12:25:54;;;;;;;;;8.00;6.00;;;;;25.69;34.66;102255.19;5062406;27;45857;-73
2023/01/30 12:28:31;;;;;;;;;6.00;6.00;;;;;25.71;34.36;102244.16;5066033;27;45418;-72
2023/01/30 12:31:07;;;;;;;;;6.33;5.33;;;;;25.73;34.45;102239.41;5065517;27;46154;-73
2023/01/30 12:33:34;;;;;;;;;5.00;5.00;;;;;25.74;34.58;102241.13;5072347;27;45655;-75
2023/01/30 12:36:15;;;;;;;;;5.33;5.33;;;;;25.77;34.56;102239.00;5068680;27;47209;-73
2023/01/30 12:39:15;;;;;;;;;5.67;5.67;;;;;25.78;34.51;102234.41;5068763;27;46243;-73
2023/01/30 12:41:52;;;;;;;;;5.33;5.33;;;;;25.79;34.76;102238.84;5068764;27;46161;-73
2023/01/30 12:44:44;;;;;;;;;5.00;5.00;;;;;25.79;34.56;102238.84;5070116;27;45400;-74
2023/01/30 12:47:16;;;;;;;;;4.00;4.00;;;;;25.79;34.50;102234.25;5069882;27;45399;-74
2023/01/30 12:50:01;;;;;;;;;4.33;4.00;;;;;25.79;34.37;102214.38;5067257;27;45476;-75
2023/01/30 12:52:40;;;;;;;;;5.67;5.00;;;;;25.78;34.09;102209.91;5066625;27;46755;-77
2023/01/30 12:55:32;;;;;;;;;6.00;6.00;;;;;25.74;34.60;102217.53;5064290;27;45466;-76
2023/01/30 12:58:19;;;;;;;;;6.00;5.00;;;;;25.70;34.74;102218.00;5073124;27;45366;-74
2023/01/30 13:00:59;;;;;;;;;6.67;5.33;;;;;25.62;34.38;102214.13;5062514;27;45450;-75
2023/01/30 13:03:34;;;;;;;;;7.00;5.67;;;;;25.58;34.41;102220.03;5048692;28;47334;-73
2023/01/30 13:06:17;;;;;;;;;4.00;4.00;;;;;25.57;34.63;102215.56;5065781;27;45432;-76
2023/01/30 13:09:20;;;;;;;;;4.33;4.33;;;;;25.56;34.29;102213.84;5062215;27;45483;-76
2023/01/30 13:12:03;;;;;;;;;5.00;5.00;;;;;25.52;34.41;102205.97;5070630;27;45503;-75
2023/01/30 13:14:47;;;;;;;;;6.00;4.33;;;;;25.57;34.60;102205.56;5073972;28;46408;-73
2023/01/30 13:17:21;;;;;;;;;4.00;4.00;;;;;25.57;34.54;102204.69;5074247;28;45500;-75
2023/01/30 13:20:04;;;;;;;;;5.67;5.33;;;;;25.59;34.46;102194.53;5066475;28;45620;-74
2023/01/30 13:22:53;;;;;;;;;5.00;5.00;;;;;25.62;34.70;102194.22;5068805;28;45417;-75
2023/01/30 13:25:32;;;;;;;;;4.00;4.00;;;;;25.63;34.60;102193.25;5056879;28;46216;-75
2023/01/30 13:28:10;;;;;;;;;5.00;5.00;;;;;25.64;34.83;102184.94;5067594;27;45450;-76
2023/01/30 13:30:38;;;;;;;;;4.00;4.00;;;;;25.64;34.46;102174.06;5063133;27;45388;-77
2023/01/30 13:33:12;;;;;;;;;5.00;5.00;;;;;25.65;34.61;102178.50;5073736;27;45557;-77
2023/01/30 13:35:45;;;;;;;;;4.67;4.67;;;;;25.60;34.71;102175.38;5049171;27;46219;-76
2023/01/30 13:38:18;;;;;;;;;4.67;3.67;;;;;25.67;34.61;102178.34;5063873;27;45582;-75
2023/01/30 13:40:46;;;;;;;;;3.33;3.33;;;;;25.68;34.42;102173.75;5066688;27;45439;-73
2023/01/30 13:43:37;;;;;;;;;4.67;4.00;;;;;25.67;34.94;102177.50;5079687;27;45615;-75
2023/01/30 13:46:07;;;;;;;;;5.67;5.00;;;;;25.65;34.54;102174.91;5066571;27;46221;-76
2023/01/30 13:48:52;;;;;;;;;4.00;4.00;;;;;25.65;34.84;102174.91;5075768;27;45501;-76
2023/01/30 13:51:20;;;;;;;;;3.67;3.67;;;;;25.65;34.12;102175.78;5078781;27;45520;-77
2023/01/30 13:54:00;;;;;;;;;3.67;3.67;;;;;25.69;34.77;102180.91;5077444;28;45431;-76
2023/01/30 13:57:07;;;;;;;;;5.00;5.00;;;;;25.70;34.91;102179.91;5064248;27;45301;-76
2023/01/30 13:59:59;;;;;;;;;4.00;4.00;;;;;25.64;34.73;102171.34;5014571;28;45792;-76
2023/01/30 14:02:24;;;;;;;;;3.00;3.00;;;;;25.62;34.79;102165.19;5006818;28;45560;-77
2023/01/30 14:04:51;;;;;;;;;5.00;3.67;;;;;25.61;34.66;102168.91;5021820;28;45418;-76
2023/01/30 14:07:21;;;;;;;;;5.00;5.00;;;;;25.61;35.10;102171.63;5018810;28;46800;-77
2023/01/30 14:10:07;;;;;;;;;6.00;4.33;;;;;25.64;34.93;102189.50;5016044;28;45377;-78
2023/01/30 14:12:37;;;;;;;;;3.00;3.00;;;;;25.67;35.08;102196.53;5005600;28;45590;-78
2023/01/30 14:15:20;;;;;;;;;4.00;3.67;;;;;25.69;34.85;102197.22;5017707;28;45473;-76
2023/01/30 14:18:01;;;;;;;;;4.33;4.00;;;;;25.70;34.69;102198.94;5000000;28;46410;-75
2023/01/30 14:20:28;;;;;;;;;5.00;3.33;;;;;25.70;34.79;102199.78;5014972;28;45518;-75
2023/01/30 14:23:02;;;;;;;;;6.00;4.33;;;;;25.69;34.72;102206.25;5012629;28;45577;-78
2023/01/30 14:25:27;;;;;;;;;4.00;4.00;;;;;25.67;34.74;102200.09;5014359;28;45881;-76
2023/01/30 14:27:53;;;;;;;;;5.00;5.00;;;;;25.65;35.08;102193.94;5015658;28;45529;-73
2023/01/30 14:30:49;;;;;;;;;3.00;3.00;;;;;25.64;35.00;102203.97;5012856;28;45796;-77
2023/01/30 14:33:20;;;;;;;;;3.33;3.33;;;;;25.64;34.60;102206.69;5013296;28;45453;-75
2023/01/30 14:36:01;;;;;;;;;5.00;5.00;;;;;25.66;34.96;102206.53;5056341;28;45451;-78
2023/01/30 14:38:37;;;;;;;;;3.00;3.00;;;;;25.67;34.55;102207.41;5067705;27;46128;-76
2023/01/30 14:41:02;;;;;;;;;5.00;3.33;;;;;25.69;34.74;102217.13;5063426;27;45599;-76
2023/01/30 14:43:41;;;;;;;;;4.00;4.00;;;;;25.70;34.67;102216.09;5063805;27;45553;-77
2023/01/30 14:46:15;;;;;;;;;3.33;3.00;;;;;25.72;35.19;102221.41;5048638;28;45852;-78
2023/01/30 14:48:45;;;;;;;;;5.33;3.67;;;;;25.72;35.19;102216.84;5064214;27;46073;-78
2023/01/30 14:51:20;;;;;;;;;6.33;5.67;;;;;25.73;34.79;102226.69;5065949;27;45377;-80
2023/01/30 14:54:09;;;;;;;;;6.00;4.67;;;;;25.63;34.73;102201.41;5065063;27;45536;-76
2023/01/30 14:56:34;;;;;;;;;5.00;4.00;;;;;25.74;34.39;102225.69;5066361;27;45376;-75
2023/01/30 14:59:04;;;;;;;;;6.00;4.00;;;;;25.76;34.95;102226.38;5066550;27;46416;-74
2023/01/30 15:02:20;;;;;;;;;4.00;4.00;;;;;25.77;34.89;102221.81;5075627;27;45527;-74
2023/01/30 15:05:00;;;;;;;;;4.00;4.00;;;;;25.78;35.21;102237.13;5071215;27;45539;-77
2023/01/30 15:07:31;;;;;;;;;3.00;3.00;;;;;25.75;34.83;102232.84;5069282;28;45500;-75
2023/01/30 15:10:01;;;;;;;;;4.00;4.00;;;;;25.78;34.79;102228.97;5077430;27;45493;-75
2023/01/30 15:12:30;;;;;;;;;3.67;2.67;;;;;25.77;34.63;102228.13;5072744;28;45435;-77
2023/01/30 15:15:19;;;;;;;;;5.00;5.00;;;;;25.78;35.13;102220.81;5076115;28;45440;-77
2023/01/30 15:18:07;;;;;;;;;3.67;3.67;;;;;25.81;34.95;102215.06;5072303;27;45570;-78
2023/01/30 15:21:02;;;;;;;;;4.67;4.67;;;;;25.83;34.54;102229.38;5075858;28;46256;-77
2023/01/30 15:24:00;;;;;;;;;4.00;4.00;;;;;25.85;34.98;102237.38;5071104;27;45472;-77
2023/01/30 15:26:40;;;;;;;;;5.33;5.33;;;;;25.83;34.88;102232.09;5072893;28;45574;-76
2023/01/30 15:29:42;;;;;;;;;3.67;3.67;;;;;25.85;34.75;102238.25;5075839;27;45557;-76
2023/01/30 15:32:20;;;;;;;;;7.00;4.33;;;;;25.84;34.62;102244.72;5068720;28;46136;-75
2023/01/30 15:34:53;;;;;;;;;4.00;4.00;;;;;25.89;35.17;102252.41;5075577;27;45824;-78
2023/01/30 15:37:45;;;;;;;;;5.00;5.00;;;;;25.89;34.72;102252.41;5072243;28;45783;-79
2023/01/30 15:40:14;;;;;;;;;3.00;3.00;;;;;25.90;35.06;102256.84;5069971;27;45931;-80
2023/01/30 15:42:46;;;;;;;;;3.67;3.33;;;;;25.87;34.62;102263.44;5075571;27;45484;-75
2023/01/30 15:45:31;;;;;;;;;4.00;3.67;;;;;25.90;34.87;102263.16;5069462;27;45462;-77
2023/01/30 15:47:59;;;;;;;;;5.33;3.67;;;;;25.98;35.09;102272.41;5072766;28;45466;-77
2023/01/30 15:50:25;;;;;;;;;3.67;3.67;;;;;26.03;34.93;102275.53;5069200;28;45593;-75
2023/01/30 15:52:52;;;;;;;;;6.00;5.00;;;;;26.10;35.26;102286.69;5067578;28;46234;-75
2023/01/30 15:55:30;;;;;;;;;4.00;4.00;;;;;26.12;35.25;102285.53;5073104;27;46024;-74
2023/01/30 15:58:00;;;;;;;;;4.00;4.00;;;;;26.15;35.00;102285.25;5062225;27;45469;-83
2023/01/30 16:00:38;;;;;;;;;4.67;4.67;;;;;26.18;34.80;102287.69;5075944;28;45509;-82
2023/01/30 16:03:09;;;;;;;;;4.33;4.33;;;;;26.18;34.60;102294.97;5073495;27;45479;-82
2023/01/30 16:05:35;;;;;;;;;4.33;4.00;;;;;26.16;34.45;102302.44;5068359;28;45729;-73
2023/01/30 16:08:16;;;;;;;;;5.00;5.00;;;;;26.13;34.75;102316.34;5062352;28;45742;-78
2023/01/30 16:10:45;;;;;;;;;3.33;2.67;;;;;26.14;34.77;102318.03;5044838;28;45356;-82
2023/01/30 16:13:10;;;;;;;;;4.00;4.00;;;;;26.14;34.53;102310.75;5064499;27;47630;-80
2023/01/30 16:16:06;;;;;;;;;5.00;4.00;;;;;26.18;34.94;102314.03;5074191;27;45349;-81
2023/01/30 16:18:45;;;;;;;;;3.67;3.67;;;;;26.21;35.14;102311.00;5077654;27;45559;-80
2023/01/30 16:21:32;;;;;;;;;5.00;5.00;;;;;26.26;34.38;102310.59;5066504;27;45479;-76
2023/01/30 16:24:03;;;;;;;;;5.00;3.67;;;;;26.30;34.90;102312.00;5063883;28;47190;-77
2023/01/30 16:26:30;;;;;;;;;4.00;4.00;;;;;26.33;34.47;102306.28;5069056;27;45463;-81
2023/01/30 16:29:06;;;;;;;;;2.33;2.33;;;;;26.38;34.52;102308.53;5068191;27;45658;-77
2023/01/30 16:31:43;;;;;;;;;4.33;3.00;;;;;26.42;34.97;102299.06;5068744;28;45559;-72
2023/01/30 16:34:44;;;;;;;;;10.00;6.00;;;;;26.47;34.32;102304.03;5077841;27;46398;-74
2023/01/30 16:37:15;;;;;;;;;7.67;6.00;;;;;26.48;34.88;102317.50;5014449;28;45474;-74
2023/01/30 16:39:40;;;;;;;;;4.33;4.00;;;;;26.47;34.97;102317.66;5007338;28;46386;-75
2023/01/30 16:42:23;;;;;;;;;3.67;3.00;;;;;26.46;34.64;102322.25;5005952;28;45616;-75
2023/01/30 16:44:48;;;;;;;;;3.00;3.00;;;;;26.45;34.69;102323.28;5015704;28;47218;-73
2023/01/30 16:47:23;;;;;;;;;4.33;2.00;;;;;26.44;34.35;102330.56;5013029;28;53780;-74
2023/01/30 16:49:51;;;;;;;;;6.00;4.33;;;;;26.45;34.90;102331.44;5007265;28;45637;-74
2023/01/30 16:52:29;;;;;;;;;4.33;4.00;;;;;26.46;34.35;102338.59;5008359;28;45582;-76
2023/01/30 16:54:58;;;;;;;;;5.00;4.00;;;;;26.47;34.83;102353.03;5007344;28;45604;-74
2023/01/30 16:57:44;;;;;;;;;8.00;7.33;;;;;26.47;34.89;102347.59;5010590;28;45421;-76
2023/01/30 17:00:29;;;;;;;;;5.67;4.33;;;;;26.47;34.75;102361.22;5011025;28;45824;-74
2023/01/30 17:02:57;;;;;;;;;5.33;4.00;;;;;26.49;34.34;102364.66;5010825;28;45492;-75
2023/01/30 17:05:26;;;;;;;;;3.00;3.00;;;;;26.47;34.96;102370.25;5008299;28;46104;-74
2023/01/30 17:07:54;;;;;;;;;4.00;4.00;;;;;26.47;35.02;102372.97;5009080;28;45564;-77
2023/01/30 17:10:38;;;;;;;;;6.33;3.00;;;;;26.48;34.83;102382.84;5022488;28;45943;-77
2023/01/30 17:13:24;;;;;;;;;5.00;5.00;;;;;26.48;34.90;102390.16;5074197;28;45517;-75
2023/01/30 17:15:49;;;;;;;;;6.00;6.00;;;;;26.48;34.56;102390.16;5072136;28;45610;-72
2023/01/30 17:18:14;;;;;;;;;5.33;5.33;;;;;26.47;34.48;102396.59;5067860;28;53866;-73
2023/01/30 17:20:46;;;;;;;;;6.67;5.00;;;;;26.48;34.88;102388.28;5056020;27;45427;-78